createdAt,value
2019-04-07T00:00:51.187Z,33.80
2019-04-07T00:03:20.765Z,36.33
2019-04-07T00:05:50.878Z,34.37
2019-04-07T00:08:20.566Z,35.00
2019-04-07T00:10:49.573Z,37.37
2019-04-07T00:13:19.003Z,36.93
2019-04-07T00:15:48.043Z,36.57
2019-04-07T00:18:17.035Z,36.77
2019-04-07T00:20:46.057Z,37.90
2019-04-07T00:23:15.105Z,37.37
2019-04-07T00:25:44.311Z,37.80
2019-04-07T00:28:13.488Z,37.33
2019-04-07T00:30:42.883Z,38.03
2019-04-07T00:33:12.252Z,38.33
2019-04-07T00:35:41.251Z,38.87
2019-04-07T00:38:10.735Z,38.67
2019-04-07T00:40:40.397Z,35.30
2019-04-07T00:43:09.978Z,38.13
2019-04-07T00:45:39.157Z,37.27
2019-04-07T00:48:09.095Z,40.03
2019-04-07T00:50:38.359Z,39.00
2019-04-07T00:53:07.766Z,40.13
2019-04-07T00:55:36.759Z,38.10
2019-04-07T00:58:06.226Z,39.73
2019-04-07T01:00:37.326Z,38.20
2019-04-07T01:03:07.258Z,40.17
2019-04-07T01:05:40.489Z,41.47
2019-04-07T01:08:07.418Z,41.83
2019-04-07T01:10:36.937Z,39.37
2019-04-07T01:13:06.540Z,38.10
2019-04-07T01:15:36.081Z,37.23
2019-04-07T01:18:06.098Z,36.33
2019-04-07T01:20:35.447Z,37.40
2019-04-07T01:23:05.450Z,40.90
2019-04-07T01:25:35.723Z,41.37
2019-04-07T01:28:05.411Z,41.00
2019-04-07T01:30:34.938Z,39.30
2019-04-07T01:33:05.389Z,41.10
2019-04-07T01:35:44.940Z,35.87
2019-04-07T01:38:05.976Z,37.33
2019-04-07T01:40:35.582Z,40.13
2019-04-07T01:43:19.785Z,39.70
2019-04-07T01:46:06.561Z,38.43
2019-04-07T01:48:58.565Z,35.73
2019-04-07T01:51:45.580Z,36.63
2019-04-07T01:54:42.345Z,36.50
2019-04-07T01:57:30.351Z,35.97
2019-04-07T02:00:19.012Z,37.73
2019-04-07T02:03:09.981Z,34.73
2019-04-07T02:06:07.131Z,32.27
2019-04-07T02:08:44.190Z,34.80
2019-04-07T02:11:36.129Z,34.53
2019-04-07T02:14:31.213Z,36.53
2019-04-07T02:17:21.020Z,35.67
2019-04-07T02:20:03.733Z,33.80
2019-04-07T02:23:07.482Z,38.67
2019-04-07T02:25:52.775Z,38.67
2019-04-07T02:28:43.569Z,36.43
2019-04-07T02:31:32.092Z,37.67
2019-04-07T02:34:26.380Z,37.37
2019-04-07T02:37:15.349Z,38.60
2019-04-07T02:39:54.931Z,38.60
2019-04-07T02:42:42.688Z,39.00
2019-04-07T02:45:24.113Z,39.23
2019-04-07T02:47:59.764Z,41.00
2019-04-07T02:50:36.681Z,41.87
2019-04-07T02:53:28.783Z,40.57
2019-04-07T02:56:22.676Z,40.07
2019-04-07T02:59:01.329Z,40.33
2019-04-07T03:01:36.978Z,39.70
2019-04-07T03:04:26.312Z,39.57
2019-04-07T03:07:27.059Z,41.20
2019-04-07T03:10:05.161Z,35.43
2019-04-07T03:12:59.335Z,35.07
2019-04-07T03:15:34.526Z,42.67
2019-04-07T03:18:35.768Z,38.60
2019-04-07T03:21:11.778Z,40.87
2019-04-07T03:23:59.670Z,42.53
2019-04-07T03:26:47.909Z,42.07
2019-04-07T03:29:54.195Z,40.10
2019-04-07T03:32:48.411Z,38.40
2019-04-07T03:35:25.272Z,41.67
2019-04-07T03:38:15.275Z,41.60
2019-04-07T03:40:55.176Z,35.87
2019-04-07T03:44:01.755Z,36.97
2019-04-07T03:46:52.754Z,35.60
2019-04-07T03:49:33.551Z,38.67
2019-04-07T03:52:11.788Z,39.00
2019-04-07T03:55:11.722Z,39.13
2019-04-07T03:57:47.838Z,39.13
2019-04-07T04:01:12.214Z,38.80
2019-04-07T04:03:52.153Z,37.93
2019-04-07T04:06:46.100Z,38.40
2019-04-07T04:09:24.689Z,39.13
2019-04-07T04:11:58.714Z,40.47
2019-04-07T04:14:32.184Z,38.33
2019-04-07T04:17:02.024Z,38.93
2019-04-07T04:19:31.187Z,40.70
2019-04-07T04:22:00.646Z,39.93
2019-04-07T04:24:30.385Z,39.73
2019-04-07T04:26:59.608Z,38.67
2019-04-07T04:29:28.680Z,38.27
2019-04-07T04:31:59.629Z,35.63
2019-04-07T04:34:29.254Z,38.63
2019-04-07T04:36:59.931Z,40.77
2019-04-07T04:39:29.567Z,40.97
2019-04-07T04:41:58.550Z,42.53
2019-04-07T04:44:28.420Z,38.17
2019-04-07T04:46:58.380Z,39.20
2019-04-07T04:49:28.786Z,44.80
2019-04-07T04:51:58.639Z,40.97
2019-04-07T04:54:29.060Z,39.53
2019-04-07T04:56:58.920Z,38.80
2019-04-07T04:59:28.347Z,40.40
2019-04-07T05:01:57.697Z,40.87
2019-04-07T05:04:26.922Z,42.73
2019-04-07T05:06:56.983Z,42.13
2019-04-07T05:09:39.165Z,45.80
2019-04-07T05:11:57.448Z,44.37
2019-04-07T05:14:27.450Z,44.50
2019-04-07T05:16:56.661Z,40.67
2019-04-07T05:19:26.230Z,39.47
2019-04-07T05:21:55.878Z,39.90
2019-04-07T05:24:25.826Z,36.83
2019-04-07T05:26:55.788Z,38.20
2019-04-07T05:29:24.953Z,39.27
2019-04-07T05:31:54.439Z,43.60
2019-04-07T05:34:23.851Z,44.53
2019-04-07T05:36:53.393Z,42.60
2019-04-07T05:39:23.027Z,44.23
2019-04-07T05:41:52.588Z,43.97
2019-04-07T05:44:21.920Z,43.37
2019-04-07T05:46:51.606Z,43.27
2019-04-07T05:49:23.348Z,48.40
2019-04-07T05:51:51.785Z,46.37
2019-04-07T05:54:20.994Z,44.77
2019-04-07T05:56:50.242Z,45.60
2019-04-07T05:59:20.026Z,38.90
2019-04-07T06:01:51.662Z,48.33
2019-04-07T06:04:20.576Z,43.83
2019-04-07T06:06:52.730Z,45.13
2019-04-07T06:09:20.899Z,45.93
2019-04-07T06:11:49.940Z,45.07
2019-04-07T06:14:19.372Z,47.23
2019-04-07T06:16:52.518Z,49.60
2019-04-07T06:19:20.325Z,39.73
2019-04-07T06:21:49.920Z,46.30
2019-04-07T06:24:22.213Z,46.93
2019-04-07T06:26:50.425Z,44.13
2019-04-07T06:29:20.031Z,39.33
2019-04-07T06:31:49.559Z,44.53
2019-04-07T06:34:19.046Z,43.87
2019-04-07T06:36:52.701Z,43.00
2019-04-07T06:39:20.102Z,46.70
2019-04-07T06:41:49.480Z,47.10
2019-04-07T06:44:21.912Z,49.77
2019-04-07T06:47:11.909Z,50.57
2019-04-07T06:50:06.181Z,52.27
2019-04-07T06:52:42.064Z,51.40
2019-04-07T06:55:32.836Z,50.17
2019-04-07T06:58:08.357Z,47.57
2019-04-07T07:00:56.721Z,49.37
2019-04-07T07:03:49.866Z,48.10
2019-04-07T07:06:37.416Z,52.03
2019-04-07T07:09:30.689Z,50.20
2019-04-07T07:12:20.619Z,48.63
2019-04-07T07:15:02.555Z,50.20
2019-04-07T07:17:47.852Z,52.20
2019-04-07T07:20:52.678Z,53.43
2019-04-07T07:23:26.370Z,47.57
2019-04-07T07:25:55.576Z,36.13
2019-04-07T07:28:24.688Z,36.03
2019-04-07T07:30:54.684Z,41.93
2019-04-07T07:33:24.453Z,46.07
2019-04-07T07:35:53.855Z,48.30
2019-04-07T07:38:23.223Z,50.17
2019-04-07T07:40:52.640Z,49.20
2019-04-07T07:43:22.677Z,50.27
2019-04-07T07:45:52.253Z,49.57
2019-04-07T07:48:26.199Z,47.97
2019-04-07T07:50:52.112Z,53.27
2019-04-07T07:53:24.528Z,51.13
2019-04-07T07:55:51.984Z,48.50
2019-04-07T07:58:21.411Z,47.57
2019-04-07T08:00:50.683Z,51.20
2019-04-07T08:03:22.488Z,50.00
2019-04-07T08:05:51.297Z,50.53
2019-04-07T08:08:21.203Z,54.27
2019-04-07T08:10:51.749Z,49.83
2019-04-07T08:13:21.329Z,52.97
2019-04-07T08:15:51.378Z,53.93
2019-04-07T08:18:21.693Z,51.53
2019-04-07T08:20:51.246Z,51.90
2019-04-07T08:23:20.978Z,52.50
2019-04-07T08:25:52.907Z,53.20
2019-04-07T08:28:21.658Z,52.73
2019-04-07T08:30:51.333Z,50.40
2019-04-07T08:33:20.449Z,53.03
2019-04-07T08:35:50.224Z,54.73
2019-04-07T08:38:23.479Z,52.53
2019-04-07T08:40:52.910Z,51.90
2019-04-07T08:43:23.502Z,54.97
2019-04-07T08:45:53.692Z,54.63
2019-04-07T08:48:24.006Z,54.90
2019-04-07T08:50:53.166Z,52.67
2019-04-07T08:53:22.888Z,49.23
2019-04-07T08:55:54.766Z,53.10
2019-04-07T08:58:27.884Z,51.83
2019-04-07T09:00:54.979Z,49.70
2019-04-07T09:03:24.430Z,49.33
2019-04-07T09:05:56.479Z,52.23
2019-04-07T09:08:24.429Z,47.17
2019-04-07T09:11:05.316Z,48.23
2019-04-07T09:13:34.686Z,54.37
2019-04-07T09:16:17.350Z,47.13
2019-04-07T09:19:10.141Z,42.60
2019-04-07T09:21:50.693Z,54.77
2019-04-07T09:24:38.314Z,55.80
2019-04-07T09:27:23.493Z,54.60
2019-04-07T09:30:01.083Z,57.03
2019-04-07T09:32:41.642Z,57.00
2019-04-07T09:35:38.823Z,56.50
2019-04-07T09:38:33.477Z,56.47
2019-04-07T09:41:23.135Z,52.17
2019-04-07T09:44:02.868Z,50.77
2019-04-07T09:46:54.146Z,55.20
2019-04-07T09:49:48.158Z,54.90
2019-04-07T09:52:39.591Z,56.37
2019-04-07T09:55:33.730Z,52.70
2019-04-07T09:58:19.323Z,61.30
2019-04-07T10:01:07.205Z,58.60
2019-04-07T10:04:12.065Z,59.03
2019-04-07T10:07:09.632Z,61.50
2019-04-07T10:10:04.626Z,63.47
2019-04-07T10:12:50.073Z,62.93
2019-04-07T10:15:35.273Z,62.10
2019-04-07T10:18:10.850Z,67.17
2019-04-07T10:20:52.503Z,58.73
2019-04-07T10:23:43.719Z,58.00
2019-04-07T10:26:26.948Z,56.23
2019-04-07T10:29:04.589Z,52.57
2019-04-07T10:31:46.372Z,57.43
2019-04-07T10:34:27.337Z,62.53
2019-04-07T10:37:03.914Z,68.57
2019-04-07T10:39:43.287Z,67.93
2019-04-07T10:42:31.509Z,66.87
2019-04-07T10:45:18.259Z,64.00
2019-04-07T10:48:15.586Z,66.97
2019-04-07T10:51:03.059Z,57.57
2019-04-07T10:53:54.264Z,66.57
2019-04-07T10:56:30.885Z,67.90
2019-04-07T10:59:21.038Z,65.93
2019-04-07T11:02:07.029Z,67.43
2019-04-07T11:04:55.266Z,66.70
2019-04-07T11:07:33.845Z,61.93
2019-04-07T11:10:32.551Z,64.53
2019-04-07T11:13:23.195Z,67.20
2019-04-07T11:16:26.523Z,53.87
2019-04-07T11:19:17.780Z,64.32
2019-04-07T11:22:04.640Z,64.80
2019-04-07T11:25:05.379Z,60.20
2019-04-07T11:27:53.977Z,57.20
2019-04-07T11:30:52.019Z,56.98
2019-04-07T11:33:40.218Z,61.75
2019-04-07T11:36:21.656Z,63.60
2019-04-07T11:39:12.184Z,70.28
2019-04-07T11:42:01.091Z,68.40
2019-04-07T11:44:49.844Z,68.78
2019-04-07T11:47:38.023Z,66.65
2019-04-07T11:50:23.377Z,66.30
2019-04-07T11:53:04.196Z,71.35
2019-04-07T11:56:06.894Z,62.58
2019-04-07T11:58:52.923Z,69.05
2019-04-07T12:01:49.486Z,66.47
2019-04-07T12:04:40.431Z,61.90
2019-04-07T12:07:39.150Z,67.47
2019-04-07T12:10:36.478Z,64.55
2019-04-07T12:13:23.585Z,68.42
2019-04-07T12:16:14.556Z,70.62
2019-04-07T12:18:59.088Z,68.22
2019-04-07T12:21:53.071Z,73.67
2019-04-07T12:24:43.463Z,72.22
2019-04-07T12:27:35.695Z,73.45
2019-04-07T12:30:32.648Z,67.92
2019-04-07T12:33:17.944Z,71.20
2019-04-07T12:36:03.262Z,72.50
2019-04-07T12:38:57.390Z,73.42
2019-04-07T12:41:48.947Z,73.00
2019-04-07T12:44:29.005Z,67.67
2019-04-07T12:47:09.165Z,65.28
2019-04-07T12:50:00.019Z,65.30
2019-04-07T12:52:42.142Z,69.25
2019-04-07T12:55:55.035Z,69.00
2019-04-07T12:58:36.864Z,71.50
2019-04-07T13:01:25.262Z,70.80
2019-04-07T13:04:13.312Z,64.77
2019-04-07T13:06:58.978Z,66.97
2019-04-07T13:09:50.097Z,70.17
2019-04-07T13:12:37.597Z,69.07
2019-04-07T13:15:35.185Z,67.70
2019-04-07T13:18:27.746Z,72.40
2019-04-07T13:21:23.013Z,72.03
2019-04-07T13:23:57.275Z,73.67
2019-04-07T13:27:04.073Z,70.42
2019-04-07T13:29:41.210Z,71.05
2019-04-07T13:32:20.783Z,71.30
2019-04-07T13:35:10.682Z,71.90
2019-04-07T13:37:45.620Z,70.60
2019-04-07T13:40:47.019Z,74.20
2019-04-07T13:43:38.431Z,74.60
2019-04-07T13:46:30.901Z,72.27
2019-04-07T13:49:17.574Z,70.20
2019-04-07T13:52:04.391Z,73.52
2019-04-07T13:54:51.581Z,71.62
2019-04-07T13:57:57.717Z,71.65
2019-04-07T14:00:38.147Z,75.17
2019-04-07T14:03:19.225Z,75.15
2019-04-07T14:06:02.387Z,74.05
2019-04-07T14:09:00.096Z,74.85
2019-04-07T14:12:05.439Z,73.40
2019-04-07T14:15:05.259Z,75.30
2019-04-07T14:18:01.113Z,74.12
2019-04-07T14:20:44.809Z,68.17
2019-04-07T14:23:54.637Z,72.67
2019-04-07T14:26:51.588Z,73.12
2019-04-07T14:29:37.025Z,74.20
2019-04-07T14:32:21.987Z,75.00
2019-04-07T14:35:09.343Z,73.83
2019-04-07T14:37:55.825Z,72.05
2019-04-07T14:40:43.508Z,73.50
2019-04-07T14:43:29.912Z,73.07
2019-04-07T14:46:16.197Z,70.40
2019-04-07T14:49:14.129Z,72.27
2019-04-07T14:51:54.101Z,74.15
2019-04-07T14:54:33.499Z,75.10
2019-04-07T14:57:28.812Z,71.57
2019-04-07T15:00:17.286Z,73.60
2019-04-07T15:02:47.702Z,71.67
2019-04-07T15:05:25.555Z,72.47
2019-04-07T15:08:20.438Z,73.10
2019-04-07T15:10:52.764Z,72.42
2019-04-07T15:13:27.957Z,75.87
2019-04-07T15:15:57.172Z,75.35
2019-04-07T15:18:27.523Z,71.30
2019-04-07T15:21:01.193Z,72.45
2019-04-07T15:23:33.044Z,75.00
2019-04-07T15:26:03.359Z,74.12
2019-04-07T15:28:33.975Z,77.53
2019-04-07T15:31:04.280Z,76.97
2019-04-07T15:33:34.186Z,75.70
2019-04-07T15:36:07.040Z,77.53
2019-04-07T15:38:35.625Z,76.25
2019-04-07T15:41:09.900Z,77.97
2019-04-07T15:43:37.164Z,77.80
2019-04-07T15:46:07.451Z,75.70
2019-04-07T15:48:37.653Z,78.78
2019-04-07T15:51:06.807Z,79.05
2019-04-07T15:53:36.841Z,79.25
2019-04-07T15:56:07.096Z,77.25
2019-04-07T15:58:37.274Z,78.42
2019-04-07T16:01:09.049Z,78.95
2019-04-07T16:03:37.287Z,73.12
2019-04-07T16:06:07.734Z,77.67
2019-04-07T16:08:36.892Z,77.03
2019-04-07T16:11:05.916Z,74.22
2019-04-07T16:13:35.885Z,81.23
2019-04-07T16:16:05.846Z,77.83
2019-04-07T16:18:39.511Z,78.12
2019-04-07T16:21:09.018Z,78.80
2019-04-07T16:23:38.067Z,82.07
2019-04-07T16:26:07.725Z,82.03
2019-04-07T16:28:36.902Z,81.55
2019-04-07T16:31:07.363Z,80.40
2019-04-07T16:33:37.261Z,81.15
2019-04-07T16:36:06.502Z,80.57
2019-04-07T16:38:36.534Z,81.67
2019-04-07T16:41:06.561Z,78.97
2019-04-07T16:43:37.715Z,78.40
2019-04-07T16:46:07.739Z,79.90
2019-04-07T16:48:39.842Z,80.87
2019-04-07T16:51:11.279Z,86.80
2019-04-07T16:53:42.776Z,85.03
2019-04-07T16:56:11.341Z,86.00
2019-04-07T16:58:41.541Z,86.10
2019-04-07T17:01:11.033Z,85.90
2019-04-07T17:03:40.864Z,82.33
2019-04-07T17:06:12.294Z,80.87
2019-04-07T17:08:41.122Z,88.03
2019-04-07T17:11:10.867Z,87.57
2019-04-07T17:13:42.663Z,86.43
2019-04-07T17:16:12.230Z,87.93
2019-04-07T17:18:43.043Z,86.57
2019-04-07T17:21:16.222Z,86.50
2019-04-07T17:23:45.793Z,87.87
2019-04-07T17:26:14.938Z,87.00
2019-04-07T17:28:45.172Z,92.17
2019-04-07T17:31:14.816Z,91.00
2019-04-07T17:33:43.913Z,93.33
2019-04-07T17:36:17.679Z,94.17
2019-04-07T17:38:53.743Z,94.23
2019-04-07T17:41:23.459Z,98.43
2019-04-07T17:44:13.227Z,96.30
2019-04-07T17:46:49.133Z,95.00
2019-04-07T17:49:36.079Z,94.10
2019-04-07T17:52:18.617Z,99.13
2019-04-07T17:55:04.753Z,97.07
2019-04-07T17:58:11.578Z,95.57
2019-04-07T18:00:56.447Z,97.90
2019-04-07T18:03:46.248Z,97.40
2019-04-07T18:06:53.902Z,94.97
2019-04-07T18:09:37.280Z,96.00
2019-04-07T18:12:23.938Z,93.30
2019-04-07T18:15:11.699Z,97.07
2019-04-07T18:17:58.895Z,97.17
2019-04-07T18:20:38.260Z,95.07
2019-04-07T18:23:40.392Z,96.47
2019-04-07T18:26:29.738Z,96.70
2019-04-07T18:29:08.227Z,98.17
2019-04-07T18:31:58.702Z,101.87
2019-04-07T18:34:36.644Z,101.40
2019-04-07T18:37:12.961Z,100.10
2019-04-07T18:40:02.414Z,103.10
2019-04-07T18:42:59.558Z,103.97
2019-04-07T18:45:59.794Z,106.27
2019-04-07T18:48:46.552Z,109.27
2019-04-07T18:51:27.299Z,108.57
2019-04-07T18:54:14.716Z,109.77
2019-04-07T18:57:01.544Z,108.60
2019-04-07T18:59:50.615Z,114.17
2019-04-07T19:02:28.930Z,124.53
2019-04-07T19:05:26.405Z,127.43
2019-04-07T19:08:17.444Z,127.70
2019-04-07T19:11:14.235Z,124.13
2019-04-07T19:14:07.337Z,130.50
2019-04-07T19:17:00.773Z,128.53
2019-04-07T19:19:46.678Z,133.50
2019-04-07T19:22:51.273Z,132.00
2019-04-07T19:25:42.632Z,134.20
2019-04-07T19:28:19.375Z,128.70
2019-04-07T19:31:19.091Z,125.20
2019-04-07T19:34:08.307Z,121.90
2019-04-07T19:36:55.064Z,123.40
2019-04-07T19:39:36.256Z,122.53
2019-04-07T19:42:16.472Z,125.40
2019-04-07T19:44:55.439Z,119.53
2019-04-07T19:47:55.522Z,119.77
2019-04-07T19:50:37.340Z,117.70
2019-04-07T19:53:15.302Z,111.03
2019-04-07T19:55:59.557Z,113.90
2019-04-07T19:58:46.923Z,111.23
2019-04-07T20:01:35.743Z,112.87
2019-04-07T20:04:30.746Z,111.27
2019-04-07T20:07:34.034Z,110.23
2019-04-07T20:10:25.990Z,106.93
2019-04-07T20:13:11.265Z,108.23
2019-04-07T20:15:58.080Z,106.53
2019-04-07T20:18:42.426Z,106.97
2019-04-07T20:21:34.816Z,102.77
2019-04-07T20:24:21.733Z,99.53
2019-04-07T20:27:07.468Z,98.77
2019-04-07T20:29:48.434Z,99.27
2019-04-07T20:32:36.107Z,96.60
2019-04-07T20:35:28.839Z,91.77
2019-04-07T20:38:33.682Z,90.80
2019-04-07T20:41:17.368Z,91.00
2019-04-07T20:44:21.068Z,89.73
2019-04-07T20:47:28.426Z,86.87
2019-04-07T20:50:11.827Z,86.23
2019-04-07T20:53:16.479Z,85.47
2019-04-07T20:56:00.445Z,87.47
2019-04-07T20:58:53.836Z,87.03
2019-04-07T21:01:35.323Z,83.40
2019-04-07T21:04:22.286Z,86.40
2019-04-07T21:07:00.779Z,85.63
2019-04-07T21:09:48.113Z,88.93
2019-04-07T21:12:32.232Z,85.33
2019-04-07T21:15:20.842Z,85.67
2019-04-07T21:17:58.275Z,85.47
2019-04-07T21:20:48.741Z,85.93
2019-04-07T21:23:36.942Z,87.20
2019-04-07T21:26:17.521Z,88.43
2019-04-07T21:28:52.834Z,81.60
2019-04-07T21:31:46.671Z,88.20
2019-04-07T21:34:21.110Z,87.50
2019-04-07T21:37:14.799Z,90.17
2019-04-07T21:39:48.283Z,88.93
2019-04-07T21:42:45.793Z,94.40
2019-04-07T21:45:54.382Z,95.67
2019-04-07T21:48:45.455Z,94.97
2019-04-07T21:51:31.931Z,101.03
2019-04-07T21:54:30.723Z,98.67
2019-04-07T21:57:28.850Z,101.00
2019-04-07T22:00:32.951Z,96.53
2019-04-07T22:03:33.324Z,95.03
2019-04-07T22:06:26.537Z,97.90
2019-04-07T22:09:08.974Z,94.77
2019-04-07T22:11:38.084Z,96.40
2019-04-07T22:14:07.831Z,95.23
2019-04-07T22:16:37.069Z,96.33
2019-04-07T22:19:10.113Z,94.40
2019-04-07T22:21:38.249Z,95.97
2019-04-07T22:24:07.662Z,91.67
2019-04-07T22:26:37.129Z,88.90
2019-04-07T22:29:06.351Z,92.27
2019-04-07T22:31:46.579Z,95.50
2019-04-07T22:34:16.534Z,98.37
2019-04-07T22:36:47.896Z,95.70
2019-04-07T22:39:16.419Z,91.30
2019-04-07T22:41:46.247Z,94.73
2019-04-07T22:44:15.772Z,97.63
2019-04-07T22:46:48.115Z,92.10
2019-04-07T22:49:15.671Z,93.33
2019-04-07T22:51:47.083Z,98.73
2019-04-07T22:54:16.733Z,96.50
2019-04-07T22:56:46.695Z,99.70
2019-04-07T22:59:16.074Z,94.73
2019-04-07T23:01:45.133Z,99.77
2019-04-07T23:04:14.170Z,95.83
2019-04-07T23:06:43.219Z,96.17
2019-04-07T23:09:13.562Z,95.33
2019-04-07T23:11:42.706Z,96.13
2019-04-07T23:14:12.115Z,103.07
2019-04-07T23:16:42.248Z,103.43
2019-04-07T23:19:11.399Z,98.43
2019-04-07T23:21:40.450Z,97.13
2019-04-07T23:24:09.707Z,96.53
2019-04-07T23:26:38.884Z,95.87
2019-04-07T23:29:07.969Z,97.67
2019-04-07T23:31:38.402Z,95.80
2019-04-07T23:34:08.276Z,98.57
2019-04-07T23:36:38.250Z,91.80
2019-04-07T23:39:08.191Z,91.67
2019-04-07T23:41:37.612Z,99.17
2019-04-07T23:44:07.329Z,99.47
2019-04-07T23:46:36.851Z,96.37
2019-04-07T23:49:06.233Z,98.53
2019-04-07T23:51:35.266Z,96.27
2019-04-07T23:54:09.146Z,95.23
2019-04-07T23:56:39.483Z,97.60
2019-04-07T23:59:10.275Z,98.13
